National Weather Service Raw Text Product

Displaying AFOS PIL: TAFDSM Received: 2017-08-13 05:20 UTC


179 
FTUS43 KDMX 130520
TAFDSM
TAF
KDSM 130520Z 1306/1406 13005KT P6SM SCT200=